createdAt,value
2022-10-17T00:00:14.861Z,16.56
2022-10-17T00:02:44.023Z,16.51
2022-10-17T00:05:12.178Z,16.49
2022-10-17T00:07:40.077Z,16.45
2022-10-17T00:10:08.862Z,16.42
2022-10-17T00:12:36.887Z,16.39
2022-10-17T00:15:06.863Z,16.37
2022-10-17T00:17:34.938Z,16.33
2022-10-17T00:20:04.520Z,16.29
2022-10-17T00:22:32.310Z,16.24
2022-10-17T00:25:00.155Z,16.22
2022-10-17T00:27:28.148Z,16.19
2022-10-17T00:29:56.091Z,16.17
2022-10-17T00:32:23.898Z,16.14
2022-10-17T00:34:51.641Z,16.11
2022-10-17T00:37:20.781Z,16.08
2022-10-17T00:39:48.608Z,16.08
2022-10-17T00:42:16.734Z,16.06
2022-10-17T00:45:17.154Z,15.99
2022-10-17T00:47:49.720Z,16.01
2022-10-17T00:50:18.608Z,15.98
2022-10-17T00:52:49.391Z,15.96
2022-10-17T00:55:21.426Z,15.93
2022-10-17T00:57:49.647Z,15.92
2022-10-17T01:00:18.539Z,15.90
2022-10-17T01:02:46.775Z,15.88
2022-10-17T01:05:16.418Z,15.87
2022-10-17T01:07:45.228Z,15.86
2022-10-17T01:10:15.654Z,15.85
2022-10-17T01:12:58.178Z,15.81
2022-10-17T01:15:36.984Z,15.82
2022-10-17T01:18:16.468Z,15.84
2022-10-17T01:21:21.899Z,15.83
2022-10-17T01:24:25.841Z,15.90
2022-10-17T01:27:31.036Z,15.94
2022-10-17T01:30:25.295Z,16.03
2022-10-17T01:32:59.955Z,16.10
2022-10-17T01:35:36.932Z,16.19
2022-10-17T01:38:11.562Z,16.27
2022-10-17T01:40:45.348Z,16.35
2022-10-17T01:43:21.524Z,16.40
2022-10-17T01:45:54.053Z,16.47
2022-10-17T01:48:26.890Z,16.55
2022-10-17T01:50:59.845Z,16.61
2022-10-17T01:53:33.665Z,16.65
2022-10-17T01:56:04.145Z,16.69
2022-10-17T01:58:35.294Z,16.73
2022-10-17T02:01:07.088Z,16.81
2022-10-17T02:03:36.939Z,16.86
2022-10-17T02:06:05.286Z,16.90
2022-10-17T02:08:43.915Z,16.91
2022-10-17T02:11:16.130Z,16.95
2022-10-17T02:13:58.312Z,16.96
2022-10-17T02:16:37.155Z,16.97
2022-10-17T02:19:21.263Z,17.00
2022-10-17T02:21:55.315Z,17.06
2022-10-17T02:24:33.471Z,17.09
2022-10-17T02:27:09.856Z,17.12
2022-10-17T02:29:45.372Z,17.14
2022-10-17T02:32:17.376Z,17.15
2022-10-17T02:34:50.023Z,17.16
2022-10-17T02:37:24.218Z,17.14
2022-10-17T02:39:53.055Z,17.15
2022-10-17T02:42:22.697Z,17.14
2022-10-17T02:44:51.134Z,17.13
2022-10-17T02:47:23.151Z,17.10
2022-10-17T02:49:54.562Z,17.08
2022-10-17T02:52:29.484Z,17.07
2022-10-17T02:55:02.252Z,17.07
2022-10-17T02:57:35.350Z,17.06
2022-10-17T03:00:05.240Z,17.06
2022-10-17T03:02:40.359Z,17.07
2022-10-17T03:05:10.654Z,17.10
2022-10-17T03:07:38.708Z,17.08
2022-10-17T03:10:07.429Z,17.09
2022-10-17T03:12:35.236Z,17.12
2022-10-17T03:15:03.100Z,17.13
2022-10-17T03:17:30.948Z,17.14
2022-10-17T03:19:59.059Z,17.13
2022-10-17T03:22:28.504Z,17.14
2022-10-17T03:24:56.500Z,17.13
2022-10-17T03:27:24.262Z,17.13
2022-10-17T03:29:52.039Z,17.13
2022-10-17T03:32:19.782Z,17.13
2022-10-17T03:34:47.605Z,17.14
2022-10-17T03:37:15.378Z,17.12
2022-10-17T03:39:44.477Z,17.15
2022-10-17T03:42:12.275Z,17.15
2022-10-17T03:44:39.996Z,17.16
2022-10-17T03:47:09.372Z,17.17
2022-10-17T03:49:39.721Z,17.16
2022-10-17T03:52:07.790Z,17.21
2022-10-17T03:54:35.604Z,17.23
2022-10-17T03:57:04.990Z,17.30
2022-10-17T03:59:32.923Z,17.34
2022-10-17T04:02:00.782Z,17.37
2022-10-17T04:04:28.780Z,17.42
2022-10-17T04:06:56.529Z,17.44
2022-10-17T04:09:24.312Z,17.46
2022-10-17T04:11:52.316Z,17.48
2022-10-17T04:14:21.436Z,17.49
2022-10-17T04:16:49.301Z,17.49
2022-10-17T04:19:17.179Z,17.52
2022-10-17T04:21:44.959Z,17.55
2022-10-17T04:24:13.321Z,17.57
2022-10-17T04:26:41.100Z,17.57
2022-10-17T04:29:08.852Z,17.63
2022-10-17T04:31:37.980Z,17.63
2022-10-17T04:34:05.715Z,17.64
2022-10-17T04:36:33.536Z,17.65
2022-10-17T04:39:02.978Z,17.69
2022-10-17T04:41:30.766Z,17.71
2022-10-17T04:43:58.635Z,17.73
2022-10-17T04:46:26.454Z,17.75
2022-10-17T04:48:56.356Z,17.73
2022-10-17T04:51:26.507Z,17.72
2022-10-17T04:53:54.669Z,17.70
2022-10-17T04:56:24.160Z,17.68
2022-10-17T04:58:52.291Z,17.68
2022-10-17T05:01:21.699Z,17.66
2022-10-17T05:03:49.797Z,17.65
2022-10-17T05:06:20.281Z,17.64
2022-10-17T05:08:48.973Z,17.64
2022-10-17T05:11:19.492Z,17.66
2022-10-17T05:13:51.659Z,17.68
2022-10-17T05:16:19.479Z,17.70
2022-10-17T05:18:52.775Z,17.68
2022-10-17T05:21:23.473Z,17.66
2022-10-17T05:23:51.731Z,17.69
2022-10-17T05:26:20.572Z,17.68
2022-10-17T05:28:48.799Z,17.69
2022-10-17T05:31:16.647Z,17.68
2022-10-17T05:33:44.493Z,17.70
2022-10-17T05:36:12.358Z,17.69
2022-10-17T05:38:41.578Z,17.68
2022-10-17T05:41:10.788Z,17.66
2022-10-17T05:43:38.605Z,17.67
2022-10-17T05:46:07.396Z,17.68
2022-10-17T05:48:35.759Z,17.71
2022-10-17T05:51:07.832Z,17.70
2022-10-17T05:53:37.433Z,17.71
2022-10-17T05:56:09.081Z,17.74
2022-10-17T05:58:49.782Z,17.71
2022-10-17T06:01:19.172Z,17.70
2022-10-17T06:03:47.005Z,17.75
2022-10-17T06:06:16.011Z,17.77
2022-10-17T06:08:44.153Z,17.81
2022-10-17T06:11:14.331Z,17.83
2022-10-17T06:13:42.481Z,17.87
2022-10-17T06:16:10.285Z,17.89
2022-10-17T06:18:38.296Z,17.92
2022-10-17T06:21:08.042Z,17.93
2022-10-17T06:23:35.861Z,17.98
2022-10-17T06:26:06.596Z,17.98
2022-10-17T06:28:36.537Z,18.01
2022-10-17T06:31:06.628Z,18.04
2022-10-17T06:33:34.466Z,18.05
2022-10-17T06:36:02.904Z,18.07
2022-10-17T06:38:31.045Z,18.09
2022-10-17T06:41:04.998Z,18.10
2022-10-17T06:43:32.770Z,18.14
2022-10-17T06:46:02.097Z,18.17
2022-10-17T06:48:29.950Z,18.20
2022-10-17T06:51:00.170Z,18.21
2022-10-17T06:53:29.117Z,18.24
2022-10-17T06:56:01.411Z,18.23
2022-10-17T06:58:29.582Z,18.23
2022-10-17T07:01:01.732Z,18.23
2022-10-17T07:03:29.829Z,18.22
2022-10-17T07:05:58.402Z,18.25
2022-10-17T07:08:26.596Z,18.23
2022-10-17T07:10:54.667Z,18.22
2022-10-17T07:13:22.483Z,18.22
2022-10-17T07:15:50.306Z,18.24
2022-10-17T07:18:19.460Z,18.25
2022-10-17T07:20:54.550Z,18.24
2022-10-17T07:23:22.328Z,18.28
2022-10-17T07:25:50.209Z,18.32
2022-10-17T07:28:18.309Z,18.37
2022-10-17T07:30:49.476Z,18.41
2022-10-17T07:33:21.292Z,18.49
2022-10-17T07:35:49.054Z,18.57
2022-10-17T07:38:16.829Z,18.66
2022-10-17T07:40:44.937Z,18.70
2022-10-17T07:43:12.747Z,18.72
2022-10-17T07:45:42.414Z,18.77
2022-10-17T07:48:10.233Z,18.81
2022-10-17T07:50:40.389Z,18.83
2022-10-17T07:53:08.317Z,18.84
2022-10-17T07:55:37.795Z,18.88
2022-10-17T07:58:06.212Z,18.93
2022-10-17T08:00:34.255Z,18.97
2022-10-17T08:03:02.067Z,19.04
2022-10-17T08:05:30.276Z,19.07
2022-10-17T08:07:59.400Z,19.13
2022-10-17T08:10:29.364Z,19.19
2022-10-17T08:12:58.039Z,19.26
2022-10-17T08:15:30.908Z,19.34
2022-10-17T08:18:00.239Z,19.39
2022-10-17T08:20:28.327Z,19.45
2022-10-17T08:22:56.657Z,19.52
2022-10-17T08:25:26.016Z,19.58
2022-10-17T08:27:53.850Z,19.64
2022-10-17T08:30:21.691Z,19.66
2022-10-17T08:32:49.416Z,19.73
2022-10-17T08:35:17.505Z,19.81
2022-10-17T08:37:45.314Z,19.86
2022-10-17T08:40:20.668Z,19.91
2022-10-17T08:43:05.767Z,19.95
2022-10-17T08:45:36.977Z,20.01
2022-10-17T08:48:10.161Z,20.05
2022-10-17T08:50:41.579Z,20.09
2022-10-17T08:53:18.196Z,20.15
2022-10-17T08:55:48.282Z,20.23
2022-10-17T08:58:22.160Z,20.30
2022-10-17T09:00:58.736Z,20.35
2022-10-17T09:03:43.203Z,20.35
2022-10-17T09:06:19.433Z,20.42
2022-10-17T09:08:59.180Z,20.52
2022-10-17T09:11:43.954Z,20.53
2022-10-17T09:14:37.045Z,20.57
2022-10-17T09:17:18.980Z,20.58
2022-10-17T09:20:01.376Z,20.67
2022-10-17T09:22:34.982Z,20.71
2022-10-17T09:25:07.708Z,20.77
2022-10-17T09:27:37.908Z,20.82
2022-10-17T09:30:43.664Z,20.81
2022-10-17T09:33:23.347Z,20.89
2022-10-17T09:36:04.034Z,20.90
2022-10-17T09:38:39.207Z,20.93
2022-10-17T09:41:32.374Z,20.93
2022-10-17T09:44:18.555Z,20.93
2022-10-17T09:47:00.565Z,20.96
2022-10-17T09:49:33.622Z,20.98
2022-10-17T09:52:02.349Z,20.97
2022-10-17T09:54:40.902Z,20.96
2022-10-17T09:57:10.742Z,20.96
2022-10-17T09:59:40.508Z,20.99
2022-10-17T10:02:18.381Z,21.00
2022-10-17T10:05:06.605Z,21.01
2022-10-17T10:07:37.480Z,21.03
2022-10-17T10:10:07.931Z,21.06
2022-10-17T10:12:38.824Z,21.08
2022-10-17T10:15:33.281Z,21.01
2022-10-17T10:18:02.984Z,21.08
2022-10-17T10:20:34.596Z,21.08
2022-10-17T10:23:14.248Z,21.04
2022-10-17T10:25:54.746Z,21.04
2022-10-17T10:28:27.325Z,21.11
2022-10-17T10:30:56.557Z,21.14
2022-10-17T10:33:30.984Z,21.17
2022-10-17T10:36:03.496Z,21.24
2022-10-17T10:38:33.185Z,21.31
2022-10-17T10:41:05.859Z,21.37
2022-10-17T10:43:37.923Z,21.45
2022-10-17T10:46:17.546Z,21.54
2022-10-17T10:48:55.113Z,21.55
2022-10-17T10:51:28.919Z,21.56
2022-10-17T10:54:06.729Z,21.48
2022-10-17T10:56:39.747Z,21.52
2022-10-17T10:59:14.929Z,21.48
2022-10-17T11:01:49.933Z,21.43
2022-10-17T11:04:28.395Z,21.40
2022-10-17T11:07:05.579Z,21.38
2022-10-17T11:09:46.174Z,21.39
2022-10-17T11:12:19.867Z,21.40
2022-10-17T11:14:53.538Z,21.36
2022-10-17T11:17:30.546Z,21.30
2022-10-17T11:20:15.070Z,21.26
2022-10-17T11:22:46.028Z,21.30
2022-10-17T11:25:29.833Z,21.30
2022-10-17T11:28:00.985Z,21.31
2022-10-17T11:30:42.298Z,21.29
2022-10-17T11:33:14.222Z,21.30
2022-10-17T11:35:47.181Z,21.32
2022-10-17T11:38:21.633Z,21.34
2022-10-17T11:40:52.500Z,21.37
2022-10-17T11:43:28.170Z,21.40
2022-10-17T11:46:01.444Z,21.44
2022-10-17T11:48:33.273Z,21.46
2022-10-17T11:54:03.496Z,21.55
2022-10-17T11:56:42.749Z,21.58
2022-10-17T11:59:40.854Z,21.51
2022-10-17T12:02:15.587Z,21.56
2022-10-17T12:04:54.923Z,21.55
2022-10-17T12:07:35.757Z,21.55
2022-10-17T12:10:18.861Z,21.54
2022-10-17T12:12:48.213Z,21.50
2022-10-17T12:15:30.424Z,21.47
2022-10-17T12:18:02.319Z,21.53
2022-10-17T12:20:33.225Z,21.54
2022-10-17T12:23:07.517Z,21.53
2022-10-17T12:28:18.501Z,21.49
2022-10-17T12:30:58.286Z,21.46
2022-10-17T12:33:33.173Z,21.47
2022-10-17T12:36:43.244Z,21.37
2022-10-17T12:39:51.662Z,21.38
2022-10-17T12:42:47.599Z,21.38
2022-10-17T12:45:51.512Z,21.37
2022-10-17T12:48:55.676Z,21.32
2022-10-17T12:51:40.515Z,21.31
2022-10-17T12:54:13.453Z,21.27
2022-10-17T12:56:43.594Z,21.28
2022-10-17T12:59:17.933Z,21.26
2022-10-17T13:01:49.048Z,21.29
2022-10-17T13:04:17.833Z,21.29
2022-10-17T13:06:48.211Z,21.28
2022-10-17T13:09:25.490Z,21.25
2022-10-17T13:11:54.685Z,21.27
2022-10-17T13:14:25.636Z,21.26
2022-10-17T13:16:55.695Z,21.26
2022-10-17T13:19:26.769Z,21.24
2022-10-17T13:22:00.965Z,21.23
2022-10-17T13:24:34.102Z,21.22
2022-10-17T13:27:03.090Z,21.21
2022-10-17T13:29:32.982Z,21.15
2022-10-17T13:32:03.906Z,21.17
2022-10-17T13:34:33.178Z,21.16
2022-10-17T13:37:03.968Z,21.14
2022-10-17T13:39:52.765Z,21.12
2022-10-17T13:42:28.575Z,21.09
2022-10-17T13:44:59.448Z,21.07
2022-10-17T13:47:32.279Z,21.08
2022-10-17T13:50:00.607Z,21.08
2022-10-17T13:52:30.770Z,21.10
2022-10-17T13:55:08.767Z,21.11
2022-10-17T13:57:36.837Z,21.17
2022-10-17T14:00:12.514Z,21.23
2022-10-17T14:02:42.547Z,21.25
2022-10-17T14:05:24.921Z,21.25
2022-10-17T14:08:12.357Z,21.30
2022-10-17T14:10:42.105Z,21.31
2022-10-17T14:13:21.714Z,21.28
2022-10-17T14:15:50.451Z,21.32
2022-10-17T14:18:22.936Z,21.33
2022-10-17T14:21:36.868Z,21.33
2022-10-17T14:23:43.334Z,21.36
2022-10-17T14:26:16.770Z,21.37
2022-10-17T14:28:47.970Z,21.39
2022-10-17T14:31:26.514Z,21.38
2022-10-17T14:33:55.464Z,21.35
2022-10-17T14:36:34.948Z,21.29
2022-10-17T14:39:03.894Z,21.30
2022-10-17T14:41:44.048Z,21.29
2022-10-17T14:44:20.798Z,21.25
2022-10-17T14:46:52.911Z,21.24
2022-10-17T14:52:27.414Z,21.10
2022-10-17T14:54:55.543Z,21.08
2022-10-17T14:57:27.263Z,21.09
2022-10-17T14:59:56.262Z,21.06
2022-10-17T15:02:25.402Z,21.06
2022-10-17T15:04:53.584Z,21.04
2022-10-17T15:07:23.666Z,21.00
2022-10-17T15:09:54.678Z,20.98
2022-10-17T15:12:25.114Z,21.01
2022-10-17T15:14:53.537Z,20.98
2022-10-17T15:17:24.620Z,20.96
2022-10-17T15:19:52.493Z,20.96
2022-10-17T15:22:20.442Z,20.94
2022-10-17T15:24:48.356Z,20.91
2022-10-17T15:27:19.593Z,20.88
2022-10-17T15:29:47.779Z,20.85
2022-10-17T15:32:16.612Z,20.82
2022-10-17T15:34:44.933Z,20.82
2022-10-17T15:37:21.927Z,20.81
2022-10-17T15:39:53.524Z,20.82
2022-10-17T15:42:27.766Z,20.81
2022-10-17T15:44:55.781Z,20.82
2022-10-17T15:47:26.081Z,20.81
2022-10-17T15:49:54.931Z,20.80
2022-10-17T15:52:23.365Z,20.73
2022-10-17T15:54:51.412Z,20.74
2022-10-17T15:57:22.146Z,20.73
2022-10-17T15:59:52.418Z,20.73
2022-10-17T16:02:21.802Z,20.71
2022-10-17T16:04:50.769Z,20.70
2022-10-17T16:07:19.486Z,20.66
2022-10-17T16:09:47.762Z,20.60
2022-10-17T16:12:18.815Z,20.60
2022-10-17T16:14:46.758Z,20.61
2022-10-17T16:17:17.720Z,20.59
2022-10-17T16:19:45.776Z,20.51
2022-10-17T16:22:21.828Z,20.45
2022-10-17T16:24:49.610Z,20.35
2022-10-17T16:27:17.412Z,20.33
2022-10-17T16:29:45.342Z,20.32
2022-10-17T16:32:13.199Z,20.27
2022-10-17T16:34:42.449Z,20.23
2022-10-17T16:37:10.337Z,20.18
2022-10-17T16:39:38.328Z,20.17
2022-10-17T16:42:06.187Z,20.14
2022-10-17T16:44:34.070Z,20.12
2022-10-17T16:47:01.898Z,20.10
2022-10-17T16:49:29.781Z,20.05
2022-10-17T16:51:58.969Z,20.03
2022-10-17T16:54:26.952Z,20.02
2022-10-17T16:56:54.748Z,20.03
2022-10-17T16:59:22.602Z,20.01
2022-10-17T17:01:50.677Z,19.95
2022-10-17T17:04:18.682Z,19.94
2022-10-17T17:06:46.618Z,19.92
2022-10-17T17:09:15.967Z,19.92
2022-10-17T17:11:43.900Z,19.93
2022-10-17T17:14:13.053Z,19.94
2022-10-17T17:16:40.886Z,19.93
2022-10-17T17:19:12.374Z,19.91
2022-10-17T17:21:40.730Z,19.89
2022-10-17T17:24:08.615Z,19.87
2022-10-17T17:26:37.840Z,19.85
2022-10-17T17:29:06.195Z,19.83
2022-10-17T17:31:36.150Z,19.84
2022-10-17T17:34:04.238Z,19.85
2022-10-17T17:36:34.081Z,19.87
2022-10-17T17:39:04.092Z,19.86
2022-10-17T17:41:32.168Z,19.84
2022-10-17T17:44:02.147Z,19.81
2022-10-17T17:46:30.517Z,19.80
2022-10-17T17:48:58.354Z,19.79
2022-10-17T17:51:29.393Z,19.80
2022-10-17T17:53:58.198Z,19.76
2022-10-17T17:56:29.676Z,19.74
2022-10-17T17:58:59.764Z,19.75
2022-10-17T18:01:31.674Z,19.77
2022-10-17T18:04:00.356Z,19.75
2022-10-17T18:06:29.334Z,19.74
2022-10-17T18:08:58.895Z,19.71
2022-10-17T18:11:28.387Z,19.68
2022-10-17T18:13:57.327Z,19.61
2022-10-17T18:16:25.860Z,19.56
2022-10-17T18:18:55.125Z,19.52
2022-10-17T18:21:23.410Z,19.46
2022-10-17T18:23:52.751Z,19.43
2022-10-17T18:26:20.926Z,19.42
2022-10-17T18:28:50.030Z,19.38
2022-10-17T18:31:24.127Z,19.35
2022-10-17T18:33:54.667Z,19.31
2022-10-17T18:36:23.235Z,19.25
2022-10-17T18:38:51.284Z,19.24
2022-10-17T18:41:21.338Z,19.26
2022-10-17T18:43:50.770Z,19.27
2022-10-17T18:46:21.478Z,19.26
2022-10-17T18:48:50.564Z,19.29
2022-10-17T18:51:22.956Z,19.27
2022-10-17T18:53:52.654Z,19.27
2022-10-17T18:56:21.569Z,19.26
2022-10-17T18:58:49.469Z,19.24
2022-10-17T19:01:19.629Z,19.23
2022-10-17T19:03:49.250Z,19.19
2022-10-17T19:06:20.494Z,19.15
2022-10-17T19:08:49.236Z,19.13
2022-10-17T19:11:20.698Z,19.13
2022-10-17T19:13:49.423Z,19.11
2022-10-17T19:16:19.662Z,19.08
2022-10-17T19:18:50.819Z,19.09
2022-10-17T19:21:21.976Z,19.11
2022-10-17T19:23:52.381Z,19.10
2022-10-17T19:26:21.173Z,19.10
2022-10-17T19:28:52.250Z,19.11
2022-10-17T19:31:25.564Z,19.13
2022-10-17T19:33:55.552Z,19.16
2022-10-17T19:36:29.075Z,19.17
2022-10-17T19:39:00.329Z,19.15
2022-10-17T19:41:29.098Z,19.17
2022-10-17T19:43:56.987Z,19.17
2022-10-17T19:46:26.551Z,19.18
2022-10-17T19:48:54.423Z,19.16
2022-10-17T19:51:24.967Z,19.14
2022-10-17T19:53:53.922Z,19.16
2022-10-17T19:56:22.994Z,19.17
2022-10-17T19:58:52.148Z,19.18
2022-10-17T20:01:22.779Z,19.16
2022-10-17T20:03:50.721Z,19.15
2022-10-17T20:06:20.319Z,19.13
2022-10-17T20:08:49.935Z,19.09
2022-10-17T20:11:21.504Z,19.04
2022-10-17T20:13:49.794Z,19.00
2022-10-17T20:16:21.358Z,18.98
2022-10-17T20:18:50.059Z,18.94
2022-10-17T20:21:19.636Z,18.88
2022-10-17T20:23:49.103Z,18.83
2022-10-17T20:26:26.266Z,18.78
2022-10-17T20:29:02.593Z,18.74
2022-10-17T20:31:30.746Z,18.75
2022-10-17T20:34:00.172Z,18.75
2022-10-17T20:36:28.070Z,18.73
2022-10-17T20:38:59.123Z,18.72
2022-10-17T20:41:28.132Z,18.70
2022-10-17T20:43:56.489Z,18.71
2022-10-17T20:46:45.189Z,18.67
2022-10-17T20:49:16.195Z,18.65
2022-10-17T20:51:44.336Z,18.57
2022-10-17T20:54:13.876Z,18.49
2022-10-17T20:56:41.701Z,18.43
2022-10-17T20:59:13.624Z,18.37
2022-10-17T21:01:41.798Z,18.36
2022-10-17T21:04:40.687Z,18.33
2022-10-17T21:06:58.322Z,18.29
2022-10-17T21:09:27.633Z,18.29
2022-10-17T21:11:56.065Z,18.29
2022-10-17T21:14:25.115Z,18.26
2022-10-17T21:16:53.373Z,18.22
2022-10-17T21:19:22.695Z,18.23
2022-10-17T21:21:50.752Z,18.25
2022-10-17T21:24:20.514Z,18.27
2022-10-17T21:26:55.422Z,18.28
2022-10-17T21:29:24.309Z,18.30
2022-10-17T21:31:52.479Z,18.30
2022-10-17T21:34:22.460Z,18.28
2022-10-17T21:36:50.424Z,18.29
2022-10-17T21:39:18.945Z,18.32
2022-10-17T21:41:46.764Z,18.34
2022-10-17T21:44:17.977Z,18.35
2022-10-17T21:46:46.454Z,18.37
2022-10-17T21:49:16.393Z,18.38
2022-10-17T21:51:44.692Z,18.36
2022-10-17T21:54:12.902Z,18.39
2022-10-17T21:56:40.994Z,18.42
2022-10-17T21:59:09.888Z,18.43
2022-10-17T22:01:41.105Z,18.46
2022-10-17T22:04:11.396Z,18.46
2022-10-17T22:06:41.589Z,18.40
2022-10-17T22:09:12.887Z,18.39
2022-10-17T22:11:40.706Z,18.38
2022-10-17T22:14:12.709Z,18.37
2022-10-17T22:16:44.185Z,18.33
2022-10-17T22:19:12.856Z,18.30
2022-10-17T22:21:41.040Z,18.30
2022-10-17T22:24:12.003Z,18.29
2022-10-17T22:26:40.481Z,18.27
2022-10-17T22:29:09.399Z,18.24
2022-10-17T22:31:38.267Z,18.22
2022-10-17T22:34:08.503Z,18.22
2022-10-17T22:36:37.163Z,18.20
2022-10-17T22:39:05.575Z,18.19
2022-10-17T22:41:33.590Z,18.15
2022-10-17T22:44:01.408Z,18.12
2022-10-17T22:46:29.334Z,18.09
2022-10-17T22:48:57.241Z,18.09
2022-10-17T22:51:26.457Z,18.06
2022-10-17T22:53:54.317Z,18.01
2022-10-17T22:56:23.650Z,17.97
2022-10-17T22:58:52.329Z,17.91
2022-10-17T23:01:22.420Z,17.87
2022-10-17T23:03:50.728Z,17.85
2022-10-17T23:06:18.881Z,17.82
2022-10-17T23:08:48.105Z,17.82
2022-10-17T23:11:15.966Z,17.82
2022-10-17T23:13:43.754Z,17.82
2022-10-17T23:16:11.537Z,17.85
2022-10-17T23:18:39.832Z,17.86
2022-10-17T23:21:08.681Z,17.86
2022-10-17T23:23:37.149Z,17.86
2022-10-17T23:26:08.202Z,17.87
2022-10-17T23:28:36.205Z,17.88
2022-10-17T23:31:12.174Z,17.87
2022-10-17T23:33:41.390Z,17.91
2022-10-17T23:36:10.619Z,17.94
2022-10-17T23:38:38.460Z,17.97
2022-10-17T23:41:07.726Z,17.99
2022-10-17T23:43:36.025Z,18.01
2022-10-17T23:46:05.060Z,18.01
2022-10-17T23:48:33.052Z,18.00
2022-10-17T23:51:00.926Z,17.97
2022-10-17T23:53:28.756Z,17.97
2022-10-17T23:55:56.559Z,17.97
2022-10-17T23:58:27.406Z,17.97
